sensor_id;sensor_type;location;lat;lon;timestamp;P1;durP1;ratioP1;P2;durP2;ratioP2
8594;SDS011;4335;48.860;9.198;2023-04-03T00:01:33;2.57;;;2.37;;
8594;SDS011;4335;48.860;9.198;2023-04-03T00:04:03;3.97;;;2.63;;
8594;SDS011;4335;48.860;9.198;2023-04-03T00:06:36;3.70;;;2.47;;
8594;SDS011;4335;48.860;9.198;2023-04-03T00:09:06;4.47;;;2.67;;
8594;SDS011;4335;48.860;9.198;2023-04-03T00:11:36;3.80;;;2.67;;
8594;SDS011;4335;48.860;9.198;2023-04-03T00:14:06;2.77;;;2.40;;
8594;SDS011;4335;48.860;9.198;2023-04-03T00:16:37;4.60;;;2.50;;
8594;SDS011;4335;48.860;9.198;2023-04-03T00:19:05;3.00;;;2.20;;
8594;SDS011;4335;48.860;9.198;2023-04-03T00:21:35;2.60;;;2.37;;
8594;SDS011;4335;48.860;9.198;2023-04-03T00:24:03;3.10;;;2.30;;
8594;SDS011;4335;48.860;9.198;2023-04-03T00:26:36;3.17;;;2.43;;
8594;SDS011;4335;48.860;9.198;2023-04-03T00:29:03;2.60;;;2.40;;
8594;SDS011;4335;48.860;9.198;2023-04-03T00:31:41;2.67;;;2.47;;
8594;SDS011;4335;48.860;9.198;2023-04-03T00:34:08;3.23;;;2.50;;
8594;SDS011;4335;48.860;9.198;2023-04-03T00:36:36;2.93;;;2.63;;
8594;SDS011;4335;48.860;9.198;2023-04-03T00:39:06;5.70;;;2.90;;
8594;SDS011;4335;48.860;9.198;2023-04-03T00:41:33;3.00;;;2.80;;
8594;SDS011;4335;48.860;9.198;2023-04-03T00:45:21;2.50;;;2.27;;
8594;SDS011;4335;48.860;9.198;2023-04-03T00:47:27;4.50;;;2.60;;
8594;SDS011;4335;48.860;9.198;2023-04-03T00:49:56;2.80;;;2.43;;
8594;SDS011;4335;48.860;9.198;2023-04-03T00:52:25;2.70;;;2.50;;
8594;SDS011;4335;48.860;9.198;2023-04-03T00:54:56;3.37;;;2.77;;
8594;SDS011;4335;48.860;9.198;2023-04-03T00:57:25;5.10;;;2.40;;
8594;SDS011;4335;48.860;9.198;2023-04-03T00:59:54;2.37;;;2.23;;
8594;SDS011;4335;48.860;9.198;2023-04-03T01:02:28;2.37;;;2.17;;
8594;SDS011;4335;48.860;9.198;2023-04-03T01:04:58;4.60;;;2.70;;
8594;SDS011;4335;48.860;9.198;2023-04-03T01:07:26;3.00;;;2.60;;
8594;SDS011;4335;48.860;9.198;2023-04-03T01:09:56;3.37;;;2.40;;
8594;SDS011;4335;48.860;9.198;2023-04-03T01:12:26;3.30;;;2.40;;
8594;SDS011;4335;48.860;9.198;2023-04-03T01:15:06;3.37;;;2.80;;
8594;SDS011;4335;48.860;9.198;2023-04-03T01:17:43;3.60;;;2.73;;
8594;SDS011;4335;48.860;9.198;2023-04-03T01:23:16;2.87;;;2.57;;
8594;SDS011;4335;48.860;9.198;2023-04-03T01:25:59;2.83;;;2.47;;
8594;SDS011;4335;48.860;9.198;2023-04-03T01:28:27;3.10;;;2.80;;
8594;SDS011;4335;48.860;9.198;2023-04-03T01:30:58;2.73;;;2.53;;
8594;SDS011;4335;48.860;9.198;2023-04-03T01:33:33;3.50;;;2.80;;
8594;SDS011;4335;48.860;9.198;2023-04-03T01:36:05;3.00;;;2.70;;
8594;SDS011;4335;48.860;9.198;2023-04-03T01:38:33;2.70;;;2.50;;
8594;SDS011;4335;48.860;9.198;2023-04-03T01:41:03;3.03;;;2.73;;
8594;SDS011;4335;48.860;9.198;2023-04-03T01:43:40;4.70;;;3.03;;
8594;SDS011;4335;48.860;9.198;2023-04-03T01:46:17;4.33;;;3.00;;
8594;SDS011;4335;48.860;9.198;2023-04-03T01:48:49;3.50;;;2.80;;
8594;SDS011;4335;48.860;9.198;2023-04-03T01:51:17;2.93;;;2.40;;
8594;SDS011;4335;48.860;9.198;2023-04-03T01:53:44;3.17;;;2.80;;
8594;SDS011;4335;48.860;9.198;2023-04-03T01:56:11;3.30;;;3.00;;
8594;SDS011;4335;48.860;9.198;2023-04-03T01:58:45;3.60;;;3.30;;
8594;SDS011;4335;48.860;9.198;2023-04-03T02:01:19;4.60;;;2.90;;
8594;SDS011;4335;48.860;9.198;2023-04-03T02:03:46;2.70;;;2.50;;
8594;SDS011;4335;48.860;9.198;2023-04-03T02:06:15;2.37;;;2.17;;
8594;SDS011;4335;48.860;9.198;2023-04-03T02:08:42;3.90;;;3.53;;
8594;SDS011;4335;48.860;9.198;2023-04-03T02:11:12;3.40;;;2.70;;
8594;SDS011;4335;48.860;9.198;2023-04-03T02:13:40;3.80;;;3.03;;
8594;SDS011;4335;48.860;9.198;2023-04-03T02:16:10;3.50;;;2.87;;
8594;SDS011;4335;48.860;9.198;2023-04-03T02:18:41;3.93;;;3.03;;
8594;SDS011;4335;48.860;9.198;2023-04-03T02:21:09;2.53;;;2.33;;
8594;SDS011;4335;48.860;9.198;2023-04-03T02:23:37;2.63;;;2.37;;
8594;SDS011;4335;48.860;9.198;2023-04-03T02:26:07;3.40;;;3.10;;
8594;SDS011;4335;48.860;9.198;2023-04-03T02:28:36;3.17;;;2.40;;
8594;SDS011;4335;48.860;9.198;2023-04-03T02:31:05;2.80;;;2.43;;
8594;SDS011;4335;48.860;9.198;2023-04-03T02:33:38;2.43;;;2.23;;
8594;SDS011;4335;48.860;9.198;2023-04-03T02:36:06;5.03;;;2.67;;
8594;SDS011;4335;48.860;9.198;2023-04-03T02:38:34;2.87;;;2.40;;
8594;SDS011;4335;48.860;9.198;2023-04-03T02:41:04;2.43;;;2.23;;
8594;SDS011;4335;48.860;9.198;2023-04-03T02:43:36;2.73;;;2.40;;
8594;SDS011;4335;48.860;9.198;2023-04-03T02:46:04;3.03;;;2.40;;
8594;SDS011;4335;48.860;9.198;2023-04-03T02:48:32;2.33;;;2.13;;
8594;SDS011;4335;48.860;9.198;2023-04-03T02:51:05;3.50;;;2.53;;
8594;SDS011;4335;48.860;9.198;2023-04-03T02:53:32;2.30;;;2.10;;
8594;SDS011;4335;48.860;9.198;2023-04-03T02:56:05;2.53;;;2.30;;
8594;SDS011;4335;48.860;9.198;2023-04-03T02:58:32;3.00;;;2.47;;
8594;SDS011;4335;48.860;9.198;2023-04-03T03:01:08;2.60;;;2.40;;
8594;SDS011;4335;48.860;9.198;2023-04-03T03:03:39;2.47;;;2.27;;
8594;SDS011;4335;48.860;9.198;2023-04-03T03:06:16;4.20;;;2.50;;
8594;SDS011;4335;48.860;9.198;2023-04-03T03:08:44;3.60;;;2.73;;
8594;SDS011;4335;48.860;9.198;2023-04-03T03:11:16;2.70;;;2.50;;
8594;SDS011;4335;48.860;9.198;2023-04-03T03:13:43;2.60;;;2.40;;
8594;SDS011;4335;48.860;9.198;2023-04-03T03:16:13;2.57;;;2.20;;
8594;SDS011;4335;48.860;9.198;2023-04-03T03:18:41;5.70;;;2.50;;
8594;SDS011;4335;48.860;9.198;2023-04-03T03:21:17;3.87;;;2.43;;
8594;SDS011;4335;48.860;9.198;2023-04-03T03:23:45;5.80;;;2.37;;
8594;SDS011;4335;48.860;9.198;2023-04-03T03:26:12;3.27;;;2.97;;
8594;SDS011;4335;48.860;9.198;2023-04-03T03:28:44;2.37;;;2.17;;
8594;SDS011;4335;48.860;9.198;2023-04-03T03:31:11;3.47;;;2.40;;
8594;SDS011;4335;48.860;9.198;2023-04-03T03:33:40;2.53;;;2.20;;
8594;SDS011;4335;48.860;9.198;2023-04-03T03:36:07;4.13;;;2.33;;
8594;SDS011;4335;48.860;9.198;2023-04-03T03:38:35;2.87;;;2.50;;
8594;SDS011;4335;48.860;9.198;2023-04-03T03:41:05;2.63;;;2.40;;
8594;SDS011;4335;48.860;9.198;2023-04-03T03:43:33;2.87;;;2.40;;
8594;SDS011;4335;48.860;9.198;2023-04-03T03:46:04;2.50;;;2.10;;
8594;SDS011;4335;48.860;9.198;2023-04-03T03:48:31;3.77;;;2.50;;
8594;SDS011;4335;48.860;9.198;2023-04-03T03:50:59;2.33;;;2.13;;
8594;SDS011;4335;48.860;9.198;2023-04-03T03:53:28;4.57;;;2.80;;
8594;SDS011;4335;48.860;9.198;2023-04-03T03:55:56;2.73;;;2.30;;
8594;SDS011;4335;48.860;9.198;2023-04-03T03:58:23;2.90;;;2.60;;
8594;SDS011;4335;48.860;9.198;2023-04-03T04:00:50;3.17;;;2.27;;
8594;SDS011;4335;48.860;9.198;2023-04-03T04:03:19;3.10;;;2.50;;
8594;SDS011;4335;48.860;9.198;2023-04-03T04:05:47;2.90;;;2.70;;
8594;SDS011;4335;48.860;9.198;2023-04-03T04:08:18;2.57;;;2.37;;
8594;SDS011;4335;48.860;9.198;2023-04-03T04:10:48;3.10;;;2.87;;
8594;SDS011;4335;48.860;9.198;2023-04-03T04:13:15;2.43;;;2.23;;
8594;SDS011;4335;48.860;9.198;2023-04-03T04:15:43;3.23;;;2.80;;
8594;SDS011;4335;48.860;9.198;2023-04-03T04:18:17;2.77;;;2.43;;
8594;SDS011;4335;48.860;9.198;2023-04-03T04:20:53;3.00;;;2.80;;
8594;SDS011;4335;48.860;9.198;2023-04-03T04:23:21;2.80;;;2.60;;
8594;SDS011;4335;48.860;9.198;2023-04-03T04:25:51;3.17;;;2.53;;
8594;SDS011;4335;48.860;9.198;2023-04-03T04:28:19;4.87;;;2.77;;
8594;SDS011;4335;48.860;9.198;2023-04-03T04:30:48;4.27;;;2.70;;
8594;SDS011;4335;48.860;9.198;2023-04-03T04:33:16;3.33;;;2.63;;
8594;SDS011;4335;48.860;9.198;2023-04-03T04:35:50;3.20;;;2.53;;
8594;SDS011;4335;48.860;9.198;2023-04-03T04:38:21;2.60;;;1.90;;
8594;SDS011;4335;48.860;9.198;2023-04-03T04:40:48;2.70;;;2.37;;
8594;SDS011;4335;48.860;9.198;2023-04-03T04:43:16;3.57;;;2.40;;
8594;SDS011;4335;48.860;9.198;2023-04-03T04:45:43;3.40;;;2.47;;
8594;SDS011;4335;48.860;9.198;2023-04-03T04:48:10;4.00;;;1.90;;
8594;SDS011;4335;48.860;9.198;2023-04-03T04:50:39;2.57;;;2.37;;
8594;SDS011;4335;48.860;9.198;2023-04-03T04:53:06;4.70;;;2.43;;
8594;SDS011;4335;48.860;9.198;2023-04-03T04:55:37;2.73;;;2.53;;
8594;SDS011;4335;48.860;9.198;2023-04-03T04:58:07;3.37;;;2.50;;
8594;SDS011;4335;48.860;9.198;2023-04-03T05:00:35;4.17;;;2.60;;
8594;SDS011;4335;48.860;9.198;2023-04-03T05:03:05;2.50;;;2.30;;
8594;SDS011;4335;48.860;9.198;2023-04-03T05:05:40;4.13;;;2.60;;
8594;SDS011;4335;48.860;9.198;2023-04-03T05:08:10;2.70;;;2.33;;
8594;SDS011;4335;48.860;9.198;2023-04-03T05:10:37;2.53;;;2.33;;
8594;SDS011;4335;48.860;9.198;2023-04-03T05:13:05;2.70;;;2.47;;
8594;SDS011;4335;48.860;9.198;2023-04-03T05:15:33;2.80;;;2.60;;
8594;SDS011;4335;48.860;9.198;2023-04-03T05:18:03;2.77;;;2.20;;
8594;SDS011;4335;48.860;9.198;2023-04-03T05:20:31;3.00;;;2.23;;
8594;SDS011;4335;48.860;9.198;2023-04-03T05:23:00;2.50;;;2.27;;
8594;SDS011;4335;48.860;9.198;2023-04-03T05:25:27;2.57;;;2.37;;
8594;SDS011;4335;48.860;9.198;2023-04-03T05:27:57;3.90;;;2.50;;
8594;SDS011;4335;48.860;9.198;2023-04-03T05:30:34;2.60;;;2.40;;
8594;SDS011;4335;48.860;9.198;2023-04-03T05:33:04;2.77;;;2.30;;
8594;SDS011;4335;48.860;9.198;2023-04-03T05:35:32;4.67;;;2.67;;
8594;SDS011;4335;48.860;9.198;2023-04-03T05:38:03;3.97;;;2.60;;
8594;SDS011;4335;48.860;9.198;2023-04-03T05:40:33;2.50;;;2.30;;
8594;SDS011;4335;48.860;9.198;2023-04-03T05:43:02;3.00;;;2.40;;
8594;SDS011;4335;48.860;9.198;2023-04-03T05:45:30;2.93;;;2.53;;
8594;SDS011;4335;48.860;9.198;2023-04-03T05:48:00;2.93;;;2.73;;
8594;SDS011;4335;48.860;9.198;2023-04-03T05:50:33;3.00;;;2.40;;
8594;SDS011;4335;48.860;9.198;2023-04-03T05:53:01;4.80;;;2.33;;
8594;SDS011;4335;48.860;9.198;2023-04-03T05:55:33;3.17;;;2.57;;
8594;SDS011;4335;48.860;9.198;2023-04-03T05:58:04;2.60;;;2.40;;
8594;SDS011;4335;48.860;9.198;2023-04-03T06:00:31;2.30;;;2.10;;
8594;SDS011;4335;48.860;9.198;2023-04-03T06:02:59;3.30;;;2.10;;
8594;SDS011;4335;48.860;9.198;2023-04-03T06:05:29;3.07;;;2.50;;
8594;SDS011;4335;48.860;9.198;2023-04-03T06:07:56;3.20;;;2.40;;
8594;SDS011;4335;48.860;9.198;2023-04-03T06:10:25;2.87;;;2.20;;
8594;SDS011;4335;48.860;9.198;2023-04-03T06:12:56;2.73;;;2.53;;
8594;SDS011;4335;48.860;9.198;2023-04-03T06:15:23;2.80;;;2.30;;
8594;SDS011;4335;48.860;9.198;2023-04-03T06:17:51;2.73;;;2.23;;
8594;SDS011;4335;48.860;9.198;2023-04-03T06:20:18;2.47;;;2.17;;
8594;SDS011;4335;48.860;9.198;2023-04-03T06:22:49;2.40;;;2.17;;
8594;SDS011;4335;48.860;9.198;2023-04-03T06:25:16;3.23;;;2.77;;
8594;SDS011;4335;48.860;9.198;2023-04-03T06:27:46;2.67;;;2.47;;
8594;SDS011;4335;48.860;9.198;2023-04-03T06:30:13;3.20;;;2.70;;
8594;SDS011;4335;48.860;9.198;2023-04-03T06:32:43;3.03;;;2.60;;
8594;SDS011;4335;48.860;9.198;2023-04-03T06:35:10;5.30;;;2.53;;
8594;SDS011;4335;48.860;9.198;2023-04-03T06:37:41;4.23;;;2.60;;
8594;SDS011;4335;48.860;9.198;2023-04-03T06:40:23;2.70;;;2.40;;
8594;SDS011;4335;48.860;9.198;2023-04-03T06:48:18;3.43;;;3.10;;
8594;SDS011;4335;48.860;9.198;2023-04-03T06:50:49;3.33;;;3.03;;
8594;SDS011;4335;48.860;9.198;2023-04-03T06:53:16;3.40;;;3.10;;
8594;SDS011;4335;48.860;9.198;2023-04-03T06:55:43;5.27;;;3.10;;
8594;SDS011;4335;48.860;9.198;2023-04-03T06:58:12;3.07;;;2.73;;
8594;SDS011;4335;48.860;9.198;2023-04-03T07:00:46;3.30;;;3.00;;
8594;SDS011;4335;48.860;9.198;2023-04-03T07:03:13;5.00;;;3.10;;
8594;SDS011;4335;48.860;9.198;2023-04-03T07:05:42;3.33;;;2.60;;
8594;SDS011;4335;48.860;9.198;2023-04-03T07:08:18;5.63;;;3.00;;
8594;SDS011;4335;48.860;9.198;2023-04-03T07:10:45;5.77;;;2.73;;
8594;SDS011;4335;48.860;9.198;2023-04-03T07:13:16;3.23;;;2.40;;
8594;SDS011;4335;48.860;9.198;2023-04-03T07:15:43;3.20;;;2.60;;
8594;SDS011;4335;48.860;9.198;2023-04-03T07:18:14;4.40;;;2.87;;
8594;SDS011;4335;48.860;9.198;2023-04-03T07:20:44;3.40;;;2.70;;
8594;SDS011;4335;48.860;9.198;2023-04-03T07:23:15;6.53;;;2.80;;
8594;SDS011;4335;48.860;9.198;2023-04-03T07:25:49;3.23;;;2.80;;
8594;SDS011;4335;48.860;9.198;2023-04-03T07:28:17;3.60;;;2.27;;
8594;SDS011;4335;48.860;9.198;2023-04-03T07:30:49;3.20;;;2.40;;
8594;SDS011;4335;48.860;9.198;2023-04-03T07:33:18;3.23;;;2.40;;
8594;SDS011;4335;48.860;9.198;2023-04-03T07:35:49;4.43;;;2.90;;
8594;SDS011;4335;48.860;9.198;2023-04-03T07:38:17;5.00;;;2.40;;
8594;SDS011;4335;48.860;9.198;2023-04-03T07:40:51;2.40;;;2.13;;
8594;SDS011;4335;48.860;9.198;2023-04-03T07:43:19;2.77;;;2.53;;
8594;SDS011;4335;48.860;9.198;2023-04-03T07:45:47;3.27;;;2.90;;
8594;SDS011;4335;48.860;9.198;2023-04-03T07:48:16;4.63;;;2.50;;
8594;SDS011;4335;48.860;9.198;2023-04-03T07:50:44;3.00;;;2.40;;
8594;SDS011;4335;48.860;9.198;2023-04-03T07:53:16;4.23;;;2.63;;
8594;SDS011;4335;48.860;9.198;2023-04-03T07:55:46;3.90;;;3.03;;
8594;SDS011;4335;48.860;9.198;2023-04-03T07:58:17;3.10;;;2.50;;
8594;SDS011;4335;48.860;9.198;2023-04-03T08:00:45;4.43;;;2.60;;
8594;SDS011;4335;48.860;9.198;2023-04-03T08:03:15;4.97;;;3.10;;
8594;SDS011;4335;48.860;9.198;2023-04-03T08:05:44;3.03;;;2.63;;
8594;SDS011;4335;48.860;9.198;2023-04-03T08:08:13;3.07;;;2.60;;
8594;SDS011;4335;48.860;9.198;2023-04-03T08:10:43;3.40;;;3.10;;
8594;SDS011;4335;48.860;9.198;2023-04-03T08:13:14;3.33;;;1.80;;
8594;SDS011;4335;48.860;9.198;2023-04-03T08:15:41;2.90;;;2.63;;
8594;SDS011;4335;48.860;9.198;2023-04-03T08:18:11;4.70;;;2.47;;
8594;SDS011;4335;48.860;9.198;2023-04-03T08:20:49;2.97;;;2.40;;
8594;SDS011;4335;48.860;9.198;2023-04-03T08:23:21;4.10;;;2.50;;
8594;SDS011;4335;48.860;9.198;2023-04-03T08:25:48;2.47;;;2.20;;
8594;SDS011;4335;48.860;9.198;2023-04-03T08:28:19;3.47;;;2.63;;
8594;SDS011;4335;48.860;9.198;2023-04-03T08:30:46;4.57;;;2.50;;
8594;SDS011;4335;48.860;9.198;2023-04-03T08:33:14;5.57;;;2.83;;
8594;SDS011;4335;48.860;9.198;2023-04-03T08:35:41;4.97;;;3.00;;
8594;SDS011;4335;48.860;9.198;2023-04-03T08:38:12;6.57;;;3.27;;
8594;SDS011;4335;48.860;9.198;2023-04-03T08:40:40;2.97;;;2.33;;
8594;SDS011;4335;48.860;9.198;2023-04-03T08:43:21;3.83;;;2.73;;
8594;SDS011;4335;48.860;9.198;2023-04-03T08:46:02;3.30;;;2.70;;
8594;SDS011;4335;48.860;9.198;2023-04-03T08:48:34;3.73;;;2.77;;
8594;SDS011;4335;48.860;9.198;2023-04-03T08:51:09;3.20;;;2.67;;
8594;SDS011;4335;48.860;9.198;2023-04-03T08:53:41;4.87;;;2.67;;
8594;SDS011;4335;48.860;9.198;2023-04-03T08:56:13;5.40;;;2.53;;
8594;SDS011;4335;48.860;9.198;2023-04-03T08:58:45;4.23;;;2.20;;
8594;SDS011;4335;48.860;9.198;2023-04-03T09:01:19;4.77;;;2.50;;
8594;SDS011;4335;48.860;9.198;2023-04-03T09:03:56;3.37;;;2.50;;
8594;SDS011;4335;48.860;9.198;2023-04-03T09:06:23;2.73;;;2.30;;
8594;SDS011;4335;48.860;9.198;2023-04-03T09:09:04;3.57;;;2.70;;
8594;SDS011;4335;48.860;9.198;2023-04-03T09:11:44;3.07;;;2.50;;
8594;SDS011;4335;48.860;9.198;2023-04-03T09:14:25;3.97;;;2.67;;
8594;SDS011;4335;48.860;9.198;2023-04-03T09:17:04;3.70;;;2.43;;
8594;SDS011;4335;48.860;9.198;2023-04-03T09:19:41;3.97;;;2.63;;
8594;SDS011;4335;48.860;9.198;2023-04-03T09:22:17;2.10;;;1.90;;
8594;SDS011;4335;48.860;9.198;2023-04-03T09:24:50;4.10;;;2.43;;
8594;SDS011;4335;48.860;9.198;2023-04-03T09:27:25;2.87;;;2.30;;
8594;SDS011;4335;48.860;9.198;2023-04-03T09:29:53;5.50;;;2.63;;
8594;SDS011;4335;48.860;9.198;2023-04-03T09:32:24;3.30;;;2.17;;
8594;SDS011;4335;48.860;9.198;2023-04-03T09:34:53;5.37;;;2.33;;
8594;SDS011;4335;48.860;9.198;2023-04-03T09:40:27;4.43;;;2.30;;
8594;SDS011;4335;48.860;9.198;2023-04-03T09:45:49;3.83;;;1.80;;
8594;SDS011;4335;48.860;9.198;2023-04-03T09:48:21;3.67;;;2.00;;
8594;SDS011;4335;48.860;9.198;2023-04-03T09:50:53;2.50;;;2.00;;
8594;SDS011;4335;48.860;9.198;2023-04-03T09:53:34;2.37;;;2.17;;
8594;SDS011;4335;48.860;9.198;2023-04-03T09:56:04;3.87;;;2.37;;
8594;SDS011;4335;48.860;9.198;2023-04-03T09:58:49;5.20;;;2.00;;
8594;SDS011;4335;48.860;9.198;2023-04-03T10:01:22;2.20;;;2.00;;
8594;SDS011;4335;48.860;9.198;2023-04-03T10:04:02;6.20;;;2.80;;
8594;SDS011;4335;48.860;9.198;2023-04-03T10:06:32;3.70;;;2.40;;
8594;SDS011;4335;48.860;9.198;2023-04-03T10:09:05;3.97;;;2.30;;
8594;SDS011;4335;48.860;9.198;2023-04-03T10:11:44;2.87;;;2.50;;
8594;SDS011;4335;48.860;9.198;2023-04-03T10:14:26;3.13;;;2.60;;
8594;SDS011;4335;48.860;9.198;2023-04-03T10:17:02;5.33;;;2.20;;
8594;SDS011;4335;48.860;9.198;2023-04-03T10:19:41;2.67;;;2.17;;
8594;SDS011;4335;48.860;9.198;2023-04-03T10:22:16;3.23;;;2.40;;
8594;SDS011;4335;48.860;9.198;2023-04-03T10:24:52;2.20;;;2.00;;
8594;SDS011;4335;48.860;9.198;2023-04-03T10:27:30;3.03;;;2.30;;
8594;SDS011;4335;48.860;9.198;2023-04-03T10:30:08;2.73;;;1.93;;
8594;SDS011;4335;48.860;9.198;2023-04-03T10:32:52;2.63;;;1.93;;
8594;SDS011;4335;48.860;9.198;2023-04-03T10:35:39;2.97;;;2.60;;
8594;SDS011;4335;48.860;9.198;2023-04-03T10:38:15;2.60;;;2.40;;
8594;SDS011;4335;48.860;9.198;2023-04-03T10:40:52;3.43;;;2.03;;
8594;SDS011;4335;48.860;9.198;2023-04-03T10:43:28;2.50;;;1.70;;
8594;SDS011;4335;48.860;9.198;2023-04-03T10:46:06;5.73;;;2.20;;
8594;SDS011;4335;48.860;9.198;2023-04-03T10:48:52;2.60;;;2.20;;
8594;SDS011;4335;48.860;9.198;2023-04-03T10:51:29;2.93;;;2.20;;
8594;SDS011;4335;48.860;9.198;2023-04-03T10:54:04;2.03;;;1.87;;
8594;SDS011;4335;48.860;9.198;2023-04-03T10:56:39;2.20;;;1.90;;
8594;SDS011;4335;48.860;9.198;2023-04-03T10:59:17;2.10;;;1.90;;
8594;SDS011;4335;48.860;9.198;2023-04-03T11:01:55;2.23;;;2.03;;
8594;SDS011;4335;48.860;9.198;2023-04-03T11:04:29;3.50;;;2.30;;
8594;SDS011;4335;48.860;9.198;2023-04-03T11:07:02;2.00;;;1.80;;
8594;SDS011;4335;48.860;9.198;2023-04-03T11:09:34;2.63;;;2.03;;
8594;SDS011;4335;48.860;9.198;2023-04-03T11:12:06;1.80;;;1.70;;
8594;SDS011;4335;48.860;9.198;2023-04-03T11:14:40;2.30;;;1.77;;
8594;SDS011;4335;48.860;9.198;2023-04-03T11:17:21;2.60;;;1.70;;
8594;SDS011;4335;48.860;9.198;2023-04-03T11:19:59;2.50;;;1.70;;
8594;SDS011;4335;48.860;9.198;2023-04-03T11:22:32;2.10;;;1.90;;
8594;SDS011;4335;48.860;9.198;2023-04-03T11:25:03;4.20;;;2.37;;
8594;SDS011;4335;48.860;9.198;2023-04-03T11:27:41;2.40;;;1.80;;
8594;SDS011;4335;48.860;9.198;2023-04-03T11:30:13;3.50;;;2.10;;
8594;SDS011;4335;48.860;9.198;2023-04-03T11:33:03;3.07;;;1.90;;
8594;SDS011;4335;48.860;9.198;2023-04-03T11:35:43;2.40;;;1.73;;
8594;SDS011;4335;48.860;9.198;2023-04-03T11:38:14;4.53;;;1.90;;
8594;SDS011;4335;48.860;9.198;2023-04-03T11:40:48;3.57;;;2.00;;
8594;SDS011;4335;48.860;9.198;2023-04-03T11:43:20;2.23;;;1.90;;
8594;SDS011;4335;48.860;9.198;2023-04-03T11:45:55;3.07;;;1.70;;
8594;SDS011;4335;48.860;9.198;2023-04-03T11:48:47;3.03;;;1.83;;
8594;SDS011;4335;48.860;9.198;2023-04-03T12:12:57;1.73;;;1.57;;
8594;SDS011;4335;48.860;9.198;2023-04-03T12:18:36;1.73;;;1.57;;
8594;SDS011;4335;48.860;9.198;2023-04-03T12:21:19;2.23;;;1.87;;
8594;SDS011;4335;48.860;9.198;2023-04-03T12:23:58;3.07;;;1.83;;
8594;SDS011;4335;48.860;9.198;2023-04-03T12:26:32;2.33;;;1.90;;
8594;SDS011;4335;48.860;9.198;2023-04-03T12:29:10;3.17;;;1.80;;
8594;SDS011;4335;48.860;9.198;2023-04-03T12:31:44;2.13;;;1.70;;
8594;SDS011;4335;48.860;9.198;2023-04-03T12:34:31;2.73;;;1.90;;
8594;SDS011;4335;48.860;9.198;2023-04-03T12:37:24;1.97;;;1.77;;
8594;SDS011;4335;48.860;9.198;2023-04-03T12:40:20;2.63;;;2.30;;
8594;SDS011;4335;48.860;9.198;2023-04-03T12:42:58;2.77;;;1.93;;
8594;SDS011;4335;48.860;9.198;2023-04-03T12:45:44;3.03;;;2.40;;
8594;SDS011;4335;48.860;9.198;2023-04-03T12:48:16;2.50;;;2.17;;
8594;SDS011;4335;48.860;9.198;2023-04-03T12:50:47;2.73;;;2.00;;
8594;SDS011;4335;48.860;9.198;2023-04-03T12:53:18;3.80;;;1.93;;
8594;SDS011;4335;48.860;9.198;2023-04-03T12:55:49;4.90;;;2.03;;
8594;SDS011;4335;48.860;9.198;2023-04-03T12:58:21;2.27;;;2.03;;
8594;SDS011;4335;48.860;9.198;2023-04-03T13:01:00;9.30;;;2.93;;
8594;SDS011;4335;48.860;9.198;2023-04-03T13:03:31;2.30;;;2.10;;
8594;SDS011;4335;48.860;9.198;2023-04-03T13:06:00;3.07;;;1.87;;
8594;SDS011;4335;48.860;9.198;2023-04-03T13:08:33;2.87;;;2.00;;
8594;SDS011;4335;48.860;9.198;2023-04-03T13:11:01;2.93;;;1.83;;
8594;SDS011;4335;48.860;9.198;2023-04-03T13:13:32;2.87;;;2.27;;
8594;SDS011;4335;48.860;9.198;2023-04-03T13:16:08;2.67;;;1.80;;
8594;SDS011;4335;48.860;9.198;2023-04-03T13:18:37;2.20;;;2.00;;
8594;SDS011;4335;48.860;9.198;2023-04-03T13:21:08;2.10;;;1.87;;
8594;SDS011;4335;48.860;9.198;2023-04-03T13:23:44;3.43;;;2.10;;
8594;SDS011;4335;48.860;9.198;2023-04-03T13:26:14;2.20;;;1.90;;
8594;SDS011;4335;48.860;9.198;2023-04-03T13:28:53;2.53;;;2.20;;
8594;SDS011;4335;48.860;9.198;2023-04-03T13:31:25;4.03;;;2.07;;
8594;SDS011;4335;48.860;9.198;2023-04-03T13:33:55;2.97;;;1.97;;
8594;SDS011;4335;48.860;9.198;2023-04-03T13:36:26;2.80;;;1.80;;
8594;SDS011;4335;48.860;9.198;2023-04-03T13:38:59;1.80;;;1.50;;
8594;SDS011;4335;48.860;9.198;2023-04-03T13:41:33;2.93;;;1.70;;
8594;SDS011;4335;48.860;9.198;2023-04-03T13:44:15;2.67;;;2.07;;
8594;SDS011;4335;48.860;9.198;2023-04-03T13:46:44;3.43;;;2.43;;
8594;SDS011;4335;48.860;9.198;2023-04-03T13:49:21;3.57;;;1.63;;
8594;SDS011;4335;48.860;9.198;2023-04-03T13:51:55;2.27;;;2.00;;
8594;SDS011;4335;48.860;9.198;2023-04-03T13:54:25;2.17;;;1.73;;
8594;SDS011;4335;48.860;9.198;2023-04-03T13:56:57;5.63;;;2.17;;
8594;SDS011;4335;48.860;9.198;2023-04-03T13:59:27;2.90;;;1.90;;
8594;SDS011;4335;48.860;9.198;2023-04-03T14:02:09;2.47;;;1.90;;
8594;SDS011;4335;48.860;9.198;2023-04-03T14:04:46;2.70;;;1.83;;
8594;SDS011;4335;48.860;9.198;2023-04-03T14:07:21;3.50;;;2.27;;
8594;SDS011;4335;48.860;9.198;2023-04-03T14:09:53;2.17;;;1.90;;
8594;SDS011;4335;48.860;9.198;2023-04-03T14:12:21;1.83;;;1.70;;
8594;SDS011;4335;48.860;9.198;2023-04-03T14:14:52;2.63;;;2.00;;
8594;SDS011;4335;48.860;9.198;2023-04-03T14:17:23;2.10;;;1.70;;
8594;SDS011;4335;48.860;9.198;2023-04-03T14:19:52;2.13;;;1.70;;
8594;SDS011;4335;48.860;9.198;2023-04-03T14:22:21;2.33;;;2.00;;
8594;SDS011;4335;48.860;9.198;2023-04-03T14:24:52;1.70;;;1.60;;
8594;SDS011;4335;48.860;9.198;2023-04-03T14:27:20;2.63;;;1.80;;
8594;SDS011;4335;48.860;9.198;2023-04-03T14:29:50;3.33;;;1.90;;
8594;SDS011;4335;48.860;9.198;2023-04-03T14:32:23;2.33;;;2.00;;
8594;SDS011;4335;48.860;9.198;2023-04-03T14:34:55;3.57;;;2.00;;
8594;SDS011;4335;48.860;9.198;2023-04-03T14:37:24;2.60;;;2.13;;
8594;SDS011;4335;48.860;9.198;2023-04-03T14:39:56;4.70;;;2.00;;
8594;SDS011;4335;48.860;9.198;2023-04-03T14:42:25;3.00;;;2.07;;
8594;SDS011;4335;48.860;9.198;2023-04-03T14:44:57;2.43;;;1.67;;
8594;SDS011;4335;48.860;9.198;2023-04-03T14:47:30;4.57;;;2.07;;
8594;SDS011;4335;48.860;9.198;2023-04-03T14:49:57;2.87;;;1.57;;
8594;SDS011;4335;48.860;9.198;2023-04-03T14:52:26;2.57;;;1.90;;
8594;SDS011;4335;48.860;9.198;2023-04-03T14:55:03;3.60;;;1.73;;
8594;SDS011;4335;48.860;9.198;2023-04-03T14:57:32;2.87;;;1.70;;
8594;SDS011;4335;48.860;9.198;2023-04-03T15:00:04;3.53;;;2.30;;
8594;SDS011;4335;48.860;9.198;2023-04-03T15:02:34;2.33;;;1.67;;
8594;SDS011;4335;48.860;9.198;2023-04-03T15:05:04;2.10;;;1.90;;
8594;SDS011;4335;48.860;9.198;2023-04-03T15:07:34;3.37;;;1.90;;
8594;SDS011;4335;48.860;9.198;2023-04-03T15:10:09;2.50;;;1.70;;
8594;SDS011;4335;48.860;9.198;2023-04-03T15:12:48;3.03;;;2.20;;
8594;SDS011;4335;48.860;9.198;2023-04-03T15:15:17;2.50;;;2.30;;
8594;SDS011;4335;48.860;9.198;2023-04-03T15:17:46;3.60;;;2.20;;
8594;SDS011;4335;48.860;9.198;2023-04-03T15:20:19;2.67;;;2.40;;
8594;SDS011;4335;48.860;9.198;2023-04-03T15:22:48;2.43;;;1.80;;
8594;SDS011;4335;48.860;9.198;2023-04-03T15:25:22;4.23;;;1.80;;
8594;SDS011;4335;48.860;9.198;2023-04-03T15:27:54;2.13;;;1.70;;
8594;SDS011;4335;48.860;9.198;2023-04-03T15:30:22;4.43;;;2.10;;
8594;SDS011;4335;48.860;9.198;2023-04-03T15:32:52;5.20;;;2.30;;
8594;SDS011;4335;48.860;9.198;2023-04-03T15:35:19;2.57;;;2.13;;
8594;SDS011;4335;48.860;9.198;2023-04-03T15:37:47;4.57;;;1.90;;
8594;SDS011;4335;48.860;9.198;2023-04-03T15:40:14;3.23;;;2.03;;
8594;SDS011;4335;48.860;9.198;2023-04-03T15:42:43;3.33;;;1.93;;
8594;SDS011;4335;48.860;9.198;2023-04-03T15:45:11;2.13;;;1.60;;
8594;SDS011;4335;48.860;9.198;2023-04-03T15:47:38;3.73;;;2.00;;
8594;SDS011;4335;48.860;9.198;2023-04-03T15:50:06;2.73;;;1.83;;
8594;SDS011;4335;48.860;9.198;2023-04-03T15:52:34;2.10;;;2.00;;
8594;SDS011;4335;48.860;9.198;2023-04-03T15:55:05;2.17;;;1.80;;
8594;SDS011;4335;48.860;9.198;2023-04-03T15:57:35;3.50;;;2.10;;
8594;SDS011;4335;48.860;9.198;2023-04-03T16:00:05;2.33;;;1.83;;
8594;SDS011;4335;48.860;9.198;2023-04-03T16:02:33;3.50;;;2.00;;
8594;SDS011;4335;48.860;9.198;2023-04-03T16:05:01;4.53;;;2.27;;
8594;SDS011;4335;48.860;9.198;2023-04-03T16:07:31;4.10;;;1.70;;
8594;SDS011;4335;48.860;9.198;2023-04-03T16:09:59;3.27;;;2.17;;
8594;SDS011;4335;48.860;9.198;2023-04-03T16:12:26;2.10;;;1.80;;
8594;SDS011;4335;48.860;9.198;2023-04-03T16:14:54;2.33;;;1.87;;
8594;SDS011;4335;48.860;9.198;2023-04-03T16:17:23;2.07;;;1.80;;
8594;SDS011;4335;48.860;9.198;2023-04-03T16:19:50;2.07;;;1.73;;
8594;SDS011;4335;48.860;9.198;2023-04-03T16:22:24;2.60;;;1.93;;